sensor_id;sensor_type;location;lat;lon;timestamp;P1;durP1;ratioP1;P2;durP2;ratioP2
30998;SDS011;20549;50.042;8.968;2023-02-28T00:01:31;1.50;;;1.40;;
30998;SDS011;20549;50.042;8.968;2023-02-28T00:03:57;1.90;;;1.70;;
30998;SDS011;20549;50.042;8.968;2023-02-28T00:06:24;1.50;;;1.40;;
30998;SDS011;20549;50.042;8.968;2023-02-28T00:08:50;1.90;;;1.80;;
30998;SDS011;20549;50.042;8.968;2023-02-28T00:11:17;1.23;;;1.13;;
30998;SDS011;20549;50.042;8.968;2023-02-28T00:13:44;1.80;;;1.70;;
30998;SDS011;20549;50.042;8.968;2023-02-28T00:16:11;1.57;;;1.47;;
30998;SDS011;20549;50.042;8.968;2023-02-28T00:18:37;1.57;;;1.40;;
30998;SDS011;20549;50.042;8.968;2023-02-28T00:21:03;1.60;;;1.50;;
30998;SDS011;20549;50.042;8.968;2023-02-28T00:23:30;1.47;;;1.37;;
30998;SDS011;20549;50.042;8.968;2023-02-28T00:25:56;1.37;;;1.30;;
30998;SDS011;20549;50.042;8.968;2023-02-28T00:28:23;2.30;;;1.40;;
30998;SDS011;20549;50.042;8.968;2023-02-28T00:30:49;2.27;;;1.50;;
30998;SDS011;20549;50.042;8.968;2023-02-28T00:33:16;1.57;;;1.47;;
30998;SDS011;20549;50.042;8.968;2023-02-28T00:35:43;2.40;;;1.80;;
30998;SDS011;20549;50.042;8.968;2023-02-28T00:38:09;2.93;;;1.50;;
30998;SDS011;20549;50.042;8.968;2023-02-28T00:40:36;1.50;;;1.50;;
30998;SDS011;20549;50.042;8.968;2023-02-28T00:43:02;2.23;;;1.90;;
30998;SDS011;20549;50.042;8.968;2023-02-28T00:45:29;1.77;;;1.67;;
30998;SDS011;20549;50.042;8.968;2023-02-28T00:47:56;2.47;;;1.63;;
30998;SDS011;20549;50.042;8.968;2023-02-28T00:50:22;1.50;;;1.40;;
30998;SDS011;20549;50.042;8.968;2023-02-28T00:52:49;2.00;;;1.80;;
30998;SDS011;20549;50.042;8.968;2023-02-28T00:55:15;1.73;;;1.63;;
30998;SDS011;20549;50.042;8.968;2023-02-28T00:57:42;1.50;;;1.40;;
30998;SDS011;20549;50.042;8.968;2023-02-28T01:00:09;1.67;;;1.57;;
30998;SDS011;20549;50.042;8.968;2023-02-28T01:02:35;1.70;;;1.60;;
30998;SDS011;20549;50.042;8.968;2023-02-28T01:05:02;1.70;;;1.60;;
30998;SDS011;20549;50.042;8.968;2023-02-28T01:07:28;1.70;;;1.60;;
30998;SDS011;20549;50.042;8.968;2023-02-28T01:09:55;1.73;;;1.63;;
30998;SDS011;20549;50.042;8.968;2023-02-28T01:12:21;1.97;;;1.77;;
30998;SDS011;20549;50.042;8.968;2023-02-28T01:14:48;1.77;;;1.67;;
30998;SDS011;20549;50.042;8.968;2023-02-28T01:17:15;1.80;;;1.70;;
30998;SDS011;20549;50.042;8.968;2023-02-28T01:19:41;1.93;;;1.73;;
30998;SDS011;20549;50.042;8.968;2023-02-28T01:22:08;2.73;;;1.63;;
30998;SDS011;20549;50.042;8.968;2023-02-28T01:24:34;2.27;;;1.80;;
30998;SDS011;20549;50.042;8.968;2023-02-28T01:27:01;3.37;;;1.83;;
30998;SDS011;20549;50.042;8.968;2023-02-28T01:29:28;1.90;;;1.70;;
30998;SDS011;20549;50.042;8.968;2023-02-28T01:31:54;2.33;;;2.00;;
30998;SDS011;20549;50.042;8.968;2023-02-28T01:34:21;2.03;;;1.90;;
30998;SDS011;20549;50.042;8.968;2023-02-28T01:36:47;3.03;;;2.13;;
30998;SDS011;20549;50.042;8.968;2023-02-28T01:39:14;2.23;;;1.77;;
30998;SDS011;20549;50.042;8.968;2023-02-28T01:41:40;2.07;;;1.60;;
30998;SDS011;20549;50.042;8.968;2023-02-28T01:44:54;2.37;;;2.27;;
30998;SDS011;20549;50.042;8.968;2023-02-28T01:46:34;2.33;;;2.00;;
30998;SDS011;20549;50.042;8.968;2023-02-28T01:49:12;2.30;;;2.13;;
30998;SDS011;20549;50.042;8.968;2023-02-28T01:51:41;2.50;;;1.93;;
30998;SDS011;20549;50.042;8.968;2023-02-28T01:54:07;2.30;;;2.13;;
30998;SDS011;20549;50.042;8.968;2023-02-28T01:56:32;2.20;;;2.10;;
30998;SDS011;20549;50.042;8.968;2023-02-28T01:58:58;3.20;;;2.20;;
30998;SDS011;20549;50.042;8.968;2023-02-28T02:01:25;2.93;;;2.00;;
30998;SDS011;20549;50.042;8.968;2023-02-28T02:03:53;1.90;;;1.80;;
30998;SDS011;20549;50.042;8.968;2023-02-28T02:06:18;2.10;;;2.00;;
30998;SDS011;20549;50.042;8.968;2023-02-28T02:08:45;2.93;;;2.10;;
30998;SDS011;20549;50.042;8.968;2023-02-28T02:11:11;2.30;;;2.10;;
30998;SDS011;20549;50.042;8.968;2023-02-28T02:13:57;2.10;;;1.90;;
30998;SDS011;20549;50.042;8.968;2023-02-28T02:16:25;2.17;;;1.97;;
30998;SDS011;20549;50.042;8.968;2023-02-28T02:18:53;1.90;;;1.73;;
30998;SDS011;20549;50.042;8.968;2023-02-28T02:24:03;1.73;;;1.63;;
30998;SDS011;20549;50.042;8.968;2023-02-28T02:26:31;2.00;;;1.90;;
30998;SDS011;20549;50.042;8.968;2023-02-28T02:29:10;2.67;;;2.13;;
30998;SDS011;20549;50.042;8.968;2023-02-28T02:32:02;3.77;;;2.30;;
30998;SDS011;20549;50.042;8.968;2023-02-28T02:34:49;1.90;;;1.80;;
30998;SDS011;20549;50.042;8.968;2023-02-28T02:37:27;3.33;;;2.00;;
30998;SDS011;20549;50.042;8.968;2023-02-28T02:42:27;2.43;;;2.23;;
30998;SDS011;20549;50.042;8.968;2023-02-28T02:44:59;2.10;;;1.90;;
30998;SDS011;20549;50.042;8.968;2023-02-28T02:47:27;2.00;;;1.90;;
30998;SDS011;20549;50.042;8.968;2023-02-28T02:49:53;2.10;;;2.00;;
30998;SDS011;20549;50.042;8.968;2023-02-28T02:52:20;2.27;;;1.90;;
30998;SDS011;20549;50.042;8.968;2023-02-28T02:54:46;2.30;;;2.00;;
30998;SDS011;20549;50.042;8.968;2023-02-28T02:57:13;2.20;;;2.10;;
30998;SDS011;20549;50.042;8.968;2023-02-28T02:59:40;2.50;;;2.33;;
30998;SDS011;20549;50.042;8.968;2023-02-28T03:02:06;2.20;;;2.10;;
30998;SDS011;20549;50.042;8.968;2023-02-28T03:04:34;2.10;;;1.87;;
30998;SDS011;20549;50.042;8.968;2023-02-28T03:06:59;2.13;;;1.80;;
30998;SDS011;20549;50.042;8.968;2023-02-28T03:09:25;1.80;;;1.70;;
30998;SDS011;20549;50.042;8.968;2023-02-28T03:11:53;2.20;;;2.10;;
30998;SDS011;20549;50.042;8.968;2023-02-28T03:14:22;2.40;;;2.20;;
30998;SDS011;20549;50.042;8.968;2023-02-28T03:16:49;2.13;;;1.93;;
30998;SDS011;20549;50.042;8.968;2023-02-28T03:25:02;2.60;;;2.40;;
30998;SDS011;20549;50.042;8.968;2023-02-28T03:27:39;3.03;;;2.27;;
30998;SDS011;20549;50.042;8.968;2023-02-28T03:30:14;2.60;;;2.40;;
30998;SDS011;20549;50.042;8.968;2023-02-28T03:32:38;2.50;;;2.30;;
30998;SDS011;20549;50.042;8.968;2023-02-28T03:37:30;2.47;;;2.27;;
30998;SDS011;20549;50.042;8.968;2023-02-28T03:39:58;2.60;;;2.30;;
30998;SDS011;20549;50.042;8.968;2023-02-28T03:42:29;1.90;;;1.80;;
30998;SDS011;20549;50.042;8.968;2023-02-28T03:45:38;3.03;;;2.73;;
30998;SDS011;20549;50.042;8.968;2023-02-28T03:50:14;3.20;;;2.10;;
30998;SDS011;20549;50.042;8.968;2023-02-28T03:52:42;2.87;;;2.33;;
30998;SDS011;20549;50.042;8.968;2023-02-28T03:55:07;2.20;;;2.00;;
30998;SDS011;20549;50.042;8.968;2023-02-28T04:00:21;2.93;;;2.63;;
30998;SDS011;20549;50.042;8.968;2023-02-28T04:02:46;2.70;;;2.50;;
30998;SDS011;20549;50.042;8.968;2023-02-28T04:05:13;2.40;;;2.20;;
30998;SDS011;20549;50.042;8.968;2023-02-28T04:07:39;2.50;;;2.30;;
30998;SDS011;20549;50.042;8.968;2023-02-28T04:10:06;2.53;;;2.33;;
30998;SDS011;20549;50.042;8.968;2023-02-28T04:12:32;2.30;;;2.20;;
30998;SDS011;20549;50.042;8.968;2023-02-28T04:14:59;2.73;;;2.50;;
30998;SDS011;20549;50.042;8.968;2023-02-28T04:17:26;2.10;;;2.00;;
30998;SDS011;20549;50.042;8.968;2023-02-28T04:19:52;2.13;;;1.97;;
30998;SDS011;20549;50.042;8.968;2023-02-28T04:22:19;1.93;;;1.83;;
30998;SDS011;20549;50.042;8.968;2023-02-28T04:24:45;2.20;;;2.00;;
30998;SDS011;20549;50.042;8.968;2023-02-28T04:27:12;2.33;;;2.17;;
30998;SDS011;20549;50.042;8.968;2023-02-28T04:29:39;2.20;;;2.00;;
30998;SDS011;20549;50.042;8.968;2023-02-28T04:32:05;4.13;;;2.60;;
30998;SDS011;20549;50.042;8.968;2023-02-28T04:34:32;2.13;;;2.00;;
30998;SDS011;20549;50.042;8.968;2023-02-28T04:36:58;2.30;;;2.20;;
30998;SDS011;20549;50.042;8.968;2023-02-28T04:39:25;2.90;;;2.40;;
30998;SDS011;20549;50.042;8.968;2023-02-28T04:41:51;2.40;;;2.20;;
30998;SDS011;20549;50.042;8.968;2023-02-28T04:44:18;3.67;;;2.23;;
30998;SDS011;20549;50.042;8.968;2023-02-28T04:46:45;2.60;;;2.40;;
30998;SDS011;20549;50.042;8.968;2023-02-28T04:49:11;2.03;;;1.93;;
30998;SDS011;20549;50.042;8.968;2023-02-28T04:51:38;3.27;;;2.30;;
30998;SDS011;20549;50.042;8.968;2023-02-28T04:54:04;1.97;;;1.87;;
30998;SDS011;20549;50.042;8.968;2023-02-28T04:56:31;2.10;;;2.00;;
30998;SDS011;20549;50.042;8.968;2023-02-28T04:58:58;2.10;;;2.00;;
30998;SDS011;20549;50.042;8.968;2023-02-28T05:01:28;2.63;;;2.43;;
30998;SDS011;20549;50.042;8.968;2023-02-28T05:03:54;2.33;;;2.17;;
30998;SDS011;20549;50.042;8.968;2023-02-28T05:06:21;2.10;;;2.00;;
30998;SDS011;20549;50.042;8.968;2023-02-28T05:08:47;2.07;;;1.97;;
30998;SDS011;20549;50.042;8.968;2023-02-28T05:11:18;4.20;;;2.47;;
30998;SDS011;20549;50.042;8.968;2023-02-28T05:13:43;2.00;;;1.90;;
30998;SDS011;20549;50.042;8.968;2023-02-28T05:16:09;2.67;;;2.13;;
30998;SDS011;20549;50.042;8.968;2023-02-28T05:18:36;2.40;;;2.20;;
30998;SDS011;20549;50.042;8.968;2023-02-28T05:21:03;2.80;;;2.60;;
30998;SDS011;20549;50.042;8.968;2023-02-28T05:23:29;2.10;;;2.00;;
30998;SDS011;20549;50.042;8.968;2023-02-28T05:25:56;3.23;;;2.13;;
30998;SDS011;20549;50.042;8.968;2023-02-28T05:28:22;2.10;;;2.00;;
30998;SDS011;20549;50.042;8.968;2023-02-28T05:30:49;3.40;;;2.13;;
30998;SDS011;20549;50.042;8.968;2023-02-28T05:33:15;2.57;;;2.30;;
30998;SDS011;20549;50.042;8.968;2023-02-28T05:35:42;2.23;;;1.90;;
30998;SDS011;20549;50.042;8.968;2023-02-28T05:38:09;2.57;;;2.20;;
30998;SDS011;20549;50.042;8.968;2023-02-28T05:40:37;2.10;;;1.90;;
30998;SDS011;20549;50.042;8.968;2023-02-28T05:43:02;2.07;;;1.97;;
30998;SDS011;20549;50.042;8.968;2023-02-28T05:45:28;1.97;;;1.87;;
30998;SDS011;20549;50.042;8.968;2023-02-28T05:47:55;2.10;;;2.00;;
30998;SDS011;20549;50.042;8.968;2023-02-28T05:50:22;2.17;;;2.07;;
30998;SDS011;20549;50.042;8.968;2023-02-28T05:52:51;1.90;;;1.80;;
30998;SDS011;20549;50.042;8.968;2023-02-28T05:55:17;2.10;;;2.00;;
30998;SDS011;20549;50.042;8.968;2023-02-28T05:57:44;2.00;;;1.90;;
30998;SDS011;20549;50.042;8.968;2023-02-28T06:00:11;2.60;;;2.40;;
30998;SDS011;20549;50.042;8.968;2023-02-28T06:02:38;2.10;;;1.87;;
30998;SDS011;20549;50.042;8.968;2023-02-28T06:05:04;2.23;;;1.90;;
30998;SDS011;20549;50.042;8.968;2023-02-28T06:07:31;2.03;;;1.93;;
30998;SDS011;20549;50.042;8.968;2023-02-28T06:09:57;1.90;;;1.80;;
30998;SDS011;20549;50.042;8.968;2023-02-28T06:12:24;1.90;;;1.80;;
30998;SDS011;20549;50.042;8.968;2023-02-28T06:14:50;2.30;;;2.10;;
30998;SDS011;20549;50.042;8.968;2023-02-28T06:17:17;2.13;;;2.03;;
30998;SDS011;20549;50.042;8.968;2023-02-28T06:19:43;1.87;;;1.77;;
30998;SDS011;20549;50.042;8.968;2023-02-28T06:22:10;2.70;;;2.40;;
30998;SDS011;20549;50.042;8.968;2023-02-28T06:24:37;2.30;;;2.10;;
30998;SDS011;20549;50.042;8.968;2023-02-28T06:27:03;2.40;;;2.27;;
30998;SDS011;20549;50.042;8.968;2023-02-28T06:29:33;4.30;;;2.83;;
30998;SDS011;20549;50.042;8.968;2023-02-28T06:31:56;3.53;;;2.60;;
30998;SDS011;20549;50.042;8.968;2023-02-28T06:34:23;2.77;;;2.50;;
30998;SDS011;20549;50.042;8.968;2023-02-28T06:36:50;2.57;;;2.30;;
30998;SDS011;20549;50.042;8.968;2023-02-28T06:39:16;2.17;;;1.97;;
30998;SDS011;20549;50.042;8.968;2023-02-28T06:41:43;2.20;;;2.00;;
30998;SDS011;20549;50.042;8.968;2023-02-28T06:44:14;2.20;;;2.00;;
30998;SDS011;20549;50.042;8.968;2023-02-28T06:46:42;2.50;;;2.30;;
30998;SDS011;20549;50.042;8.968;2023-02-28T06:49:08;2.00;;;1.90;;
30998;SDS011;20549;50.042;8.968;2023-02-28T06:51:35;3.50;;;1.90;;
30998;SDS011;20549;50.042;8.968;2023-02-28T06:54:01;3.60;;;2.57;;
30998;SDS011;20549;50.042;8.968;2023-02-28T06:56:28;2.40;;;2.20;;
30998;SDS011;20549;50.042;8.968;2023-02-28T06:58:54;2.13;;;2.03;;
30998;SDS011;20549;50.042;8.968;2023-02-28T07:01:21;1.97;;;1.87;;
30998;SDS011;20549;50.042;8.968;2023-02-28T07:03:50;2.50;;;2.30;;
30998;SDS011;20549;50.042;8.968;2023-02-28T07:06:21;4.00;;;3.10;;
30998;SDS011;20549;50.042;8.968;2023-02-28T07:08:44;2.57;;;2.37;;
30998;SDS011;20549;50.042;8.968;2023-02-28T07:11:10;3.00;;;2.30;;
30998;SDS011;20549;50.042;8.968;2023-02-28T07:13:37;2.60;;;2.37;;
30998;SDS011;20549;50.042;8.968;2023-02-28T07:16:04;2.30;;;2.10;;
30998;SDS011;20549;50.042;8.968;2023-02-28T07:18:30;2.30;;;2.00;;
30998;SDS011;20549;50.042;8.968;2023-02-28T07:20:56;2.40;;;2.20;;
30998;SDS011;20549;50.042;8.968;2023-02-28T07:23:23;2.43;;;2.10;;
30998;SDS011;20549;50.042;8.968;2023-02-28T07:25:50;2.30;;;2.07;;
30998;SDS011;20549;50.042;8.968;2023-02-28T07:28:16;2.93;;;2.30;;
30998;SDS011;20549;50.042;8.968;2023-02-28T07:30:43;2.60;;;2.40;;
30998;SDS011;20549;50.042;8.968;2023-02-28T07:33:09;2.50;;;2.30;;
30998;SDS011;20549;50.042;8.968;2023-02-28T07:35:36;2.40;;;2.20;;
30998;SDS011;20549;50.042;8.968;2023-02-28T07:38:02;2.80;;;2.50;;
30998;SDS011;20549;50.042;8.968;2023-02-28T07:40:30;2.83;;;2.63;;
30998;SDS011;20549;50.042;8.968;2023-02-28T07:42:56;2.50;;;2.30;;
30998;SDS011;20549;50.042;8.968;2023-02-28T07:45:22;2.77;;;2.40;;
30998;SDS011;20549;50.042;8.968;2023-02-28T07:47:49;3.47;;;2.67;;
30998;SDS011;20549;50.042;8.968;2023-02-28T07:50:15;6.03;;;2.50;;
30998;SDS011;20549;50.042;8.968;2023-02-28T07:52:42;2.57;;;2.13;;
30998;SDS011;20549;50.042;8.968;2023-02-28T07:55:09;3.00;;;2.43;;
30998;SDS011;20549;50.042;8.968;2023-02-28T07:57:35;2.43;;;2.23;;
30998;SDS011;20549;50.042;8.968;2023-02-28T08:00:03;2.57;;;2.13;;
30998;SDS011;20549;50.042;8.968;2023-02-28T08:02:28;2.30;;;2.10;;
30998;SDS011;20549;50.042;8.968;2023-02-28T08:04:55;2.30;;;2.10;;
30998;SDS011;20549;50.042;8.968;2023-02-28T08:07:22;3.03;;;2.40;;
30998;SDS011;20549;50.042;8.968;2023-02-28T08:09:48;2.47;;;2.27;;
30998;SDS011;20549;50.042;8.968;2023-02-28T08:12:15;3.13;;;2.10;;
30998;SDS011;20549;50.042;8.968;2023-02-28T08:14:41;3.43;;;2.50;;
30998;SDS011;20549;50.042;8.968;2023-02-28T08:17:08;2.57;;;2.37;;
30998;SDS011;20549;50.042;8.968;2023-02-28T08:19:34;2.47;;;2.27;;
30998;SDS011;20549;50.042;8.968;2023-02-28T08:22:01;2.27;;;2.02;;
30998;SDS011;20549;50.042;8.968;2023-02-28T08:24:28;2.20;;;2.00;;
30998;SDS011;20549;50.042;8.968;2023-02-28T08:26:54;2.55;;;2.08;;
30998;SDS011;20549;50.042;8.968;2023-02-28T08:29:21;2.27;;;2.10;;
30998;SDS011;20549;50.042;8.968;2023-02-28T08:31:47;2.47;;;2.27;;
30998;SDS011;20549;50.042;8.968;2023-02-28T08:34:15;3.15;;;2.10;;
30998;SDS011;20549;50.042;8.968;2023-02-28T08:36:41;2.15;;;1.87;;
30998;SDS011;20549;50.042;8.968;2023-02-28T08:39:07;7.03;;;2.35;;
30998;SDS011;20549;50.042;8.968;2023-02-28T08:41:34;2.02;;;1.87;;
30998;SDS011;20549;50.042;8.968;2023-02-28T08:44:00;1.87;;;1.77;;
30998;SDS011;20549;50.042;8.968;2023-02-28T08:46:27;2.20;;;2.00;;
30998;SDS011;20549;50.042;8.968;2023-02-28T08:48:54;2.55;;;2.15;;
30998;SDS011;20549;50.042;8.968;2023-02-28T08:51:20;6.62;;;2.40;;
30998;SDS011;20549;50.042;8.968;2023-02-28T08:53:57;1.98;;;1.77;;
30998;SDS011;20549;50.042;8.968;2023-02-28T08:56:19;2.27;;;2.10;;
30998;SDS011;20549;50.042;8.968;2023-02-28T08:58:46;2.42;;;1.90;;
30998;SDS011;20549;50.042;8.968;2023-02-28T09:01:13;2.10;;;1.98;;
30998;SDS011;20549;50.042;8.968;2023-02-28T09:03:39;2.35;;;2.15;;
30998;SDS011;20549;50.042;8.968;2023-02-28T09:06:05;2.67;;;2.47;;
30998;SDS011;20549;50.042;8.968;2023-02-28T09:08:32;2.70;;;2.12;;
30998;SDS011;20549;50.042;8.968;2023-02-28T09:10:59;3.20;;;2.22;;
30998;SDS011;20549;50.042;8.968;2023-02-28T09:13:25;2.47;;;2.27;;
30998;SDS011;20549;50.042;8.968;2023-02-28T09:15:52;2.70;;;2.50;;
30998;SDS011;20549;50.042;8.968;2023-02-28T09:18:18;2.80;;;2.60;;
30998;SDS011;20549;50.042;8.968;2023-02-28T09:20:45;2.52;;;2.33;;
30998;SDS011;20549;50.042;8.968;2023-02-28T09:23:12;2.72;;;2.47;;
30998;SDS011;20549;50.042;8.968;2023-02-28T09:25:45;2.75;;;2.45;;
30998;SDS011;20549;50.042;8.968;2023-02-28T09:28:05;2.62;;;2.42;;
30998;SDS011;20549;50.042;8.968;2023-02-28T09:30:31;2.60;;;2.40;;
30998;SDS011;20549;50.042;8.968;2023-02-28T09:32:58;2.30;;;2.10;;
30998;SDS011;20549;50.042;8.968;2023-02-28T09:35:25;3.00;;;2.70;;
30998;SDS011;20549;50.042;8.968;2023-02-28T09:37:51;2.50;;;2.27;;
30998;SDS011;20549;50.042;8.968;2023-02-28T09:40:19;3.27;;;2.98;;
30998;SDS011;20549;50.042;8.968;2023-02-28T09:42:48;2.50;;;2.30;;
30998;SDS011;20549;50.042;8.968;2023-02-28T09:45:25;3.33;;;3.02;;
30998;SDS011;20549;50.042;8.968;2023-02-28T09:47:59;3.40;;;2.65;;
30998;SDS011;20549;50.042;8.968;2023-02-28T09:50:41;2.80;;;2.50;;
30998;SDS011;20549;50.042;8.968;2023-02-28T09:53:19;2.72;;;2.52;;
30998;SDS011;20549;50.042;8.968;2023-02-28T09:55:50;3.45;;;2.70;;
30998;SDS011;20549;50.042;8.968;2023-02-28T09:58:37;2.55;;;2.35;;
30998;SDS011;20549;50.042;8.968;2023-02-28T10:03:56;2.92;;;2.72;;
30998;SDS011;20549;50.042;8.968;2023-02-28T10:06:20;2.52;;;2.33;;
30998;SDS011;20549;50.042;8.968;2023-02-28T10:08:55;3.00;;;2.53;;
30998;SDS011;20549;50.042;8.968;2023-02-28T10:11:18;2.95;;;2.58;;
30998;SDS011;20549;50.042;8.968;2023-02-28T10:16:34;3.03;;;2.80;;
30998;SDS011;20549;50.042;8.968;2023-02-28T10:19:03;3.63;;;3.33;;
30998;SDS011;20549;50.042;8.968;2023-02-28T10:21:42;4.50;;;3.30;;
30998;SDS011;20549;50.042;8.968;2023-02-28T10:26:52;7.27;;;3.70;;
30998;SDS011;20549;50.042;8.968;2023-02-28T10:29:19;4.33;;;3.47;;
30998;SDS011;20549;50.042;8.968;2023-02-28T10:31:46;4.03;;;3.60;;
30998;SDS011;20549;50.042;8.968;2023-02-28T10:34:12;3.13;;;2.93;;
30998;SDS011;20549;50.042;8.968;2023-02-28T10:36:39;3.17;;;2.87;;
30998;SDS011;20549;50.042;8.968;2023-02-28T10:42:03;3.47;;;3.17;;
30998;SDS011;20549;50.042;8.968;2023-02-28T10:44:29;4.13;;;3.00;;
30998;SDS011;20549;50.042;8.968;2023-02-28T10:46:56;3.33;;;2.87;;
30998;SDS011;20549;50.042;8.968;2023-02-28T10:49:23;3.40;;;3.10;;
30998;SDS011;20549;50.042;8.968;2023-02-28T10:51:59;3.00;;;2.67;;
30998;SDS011;20549;50.042;8.968;2023-02-28T10:54:24;3.40;;;3.10;;
30998;SDS011;20549;50.042;8.968;2023-02-28T10:57:17;2.60;;;2.40;;
30998;SDS011;20549;50.042;8.968;2023-02-28T10:59:39;3.53;;;2.60;;
30998;SDS011;20549;50.042;8.968;2023-02-28T11:05:00;3.33;;;3.03;;
30998;SDS011;20549;50.042;8.968;2023-02-28T11:07:27;4.23;;;3.47;;
30998;SDS011;20549;50.042;8.968;2023-02-28T11:09:57;3.47;;;3.17;;
30998;SDS011;20549;50.042;8.968;2023-02-28T11:12:34;3.23;;;2.97;;
30998;SDS011;20549;50.042;8.968;2023-02-28T11:14:56;4.00;;;3.13;;
30998;SDS011;20549;50.042;8.968;2023-02-28T11:17:23;3.50;;;3.20;;
30998;SDS011;20549;50.042;8.968;2023-02-28T11:19:52;2.93;;;2.73;;
30998;SDS011;20549;50.042;8.968;2023-02-28T11:22:19;3.27;;;2.97;;
30998;SDS011;20549;50.042;8.968;2023-02-28T11:24:45;4.47;;;3.47;;
30998;SDS011;20549;50.042;8.968;2023-02-28T11:27:40;4.00;;;2.70;;
30998;SDS011;20549;50.042;8.968;2023-02-28T11:29:56;5.40;;;3.50;;
30998;SDS011;20549;50.042;8.968;2023-02-28T11:32:23;4.20;;;3.40;;
30998;SDS011;20549;50.042;8.968;2023-02-28T11:37:37;3.87;;;3.40;;
30998;SDS011;20549;50.042;8.968;2023-02-28T11:40:17;3.57;;;3.03;;
30998;SDS011;20549;50.042;8.968;2023-02-28T11:42:57;3.63;;;3.33;;
30998;SDS011;20549;50.042;8.968;2023-02-28T11:45:44;4.87;;;3.47;;
30998;SDS011;20549;50.042;8.968;2023-02-28T11:48:15;3.40;;;3.10;;
30998;SDS011;20549;50.042;8.968;2023-02-28T11:56:24;2.87;;;2.63;;
30998;SDS011;20549;50.042;8.968;2023-02-28T11:59:00;3.60;;;3.30;;
30998;SDS011;20549;50.042;8.968;2023-02-28T12:01:38;3.60;;;3.30;;
30998;SDS011;20549;50.042;8.968;2023-02-28T12:17:17;4.90;;;3.90;;
30998;SDS011;20549;50.042;8.968;2023-02-28T12:19:43;4.40;;;3.90;;
30998;SDS011;20549;50.042;8.968;2023-02-28T12:22:29;4.07;;;3.50;;
30998;SDS011;20549;50.042;8.968;2023-02-28T12:27:13;3.80;;;3.40;;
30998;SDS011;20549;50.042;8.968;2023-02-28T12:29:49;4.23;;;3.83;;
30998;SDS011;20549;50.042;8.968;2023-02-28T12:32:21;4.20;;;3.60;;
30998;SDS011;20549;50.042;8.968;2023-02-28T12:34:51;4.30;;;3.90;;
30998;SDS011;20549;50.042;8.968;2023-02-28T12:37:19;4.13;;;3.73;;
30998;SDS011;20549;50.042;8.968;2023-02-28T12:39:52;3.47;;;3.17;;
30998;SDS011;20549;50.042;8.968;2023-02-28T12:42:19;3.83;;;3.53;;
30998;SDS011;20549;50.042;8.968;2023-02-28T12:44:52;3.70;;;3.40;;
30998;SDS011;20549;50.042;8.968;2023-02-28T12:47:17;4.43;;;4.03;;
30998;SDS011;20549;50.042;8.968;2023-02-28T12:49:50;3.77;;;3.47;;
30998;SDS011;20549;50.042;8.968;2023-02-28T12:52:17;4.63;;;3.70;;
30998;SDS011;20549;50.042;8.968;2023-02-28T12:54:49;4.97;;;3.97;;
30998;SDS011;20549;50.042;8.968;2023-02-28T13:00:17;3.90;;;3.50;;
30998;SDS011;20549;50.042;8.968;2023-02-28T13:08:03;4.03;;;3.73;;
30998;SDS011;20549;50.042;8.968;2023-02-28T13:10:45;4.43;;;3.60;;
30998;SDS011;20549;50.042;8.968;2023-02-28T13:13:13;4.63;;;4.23;;
30998;SDS011;20549;50.042;8.968;2023-02-28T13:15:38;4.37;;;3.97;;
30998;SDS011;20549;50.042;8.968;2023-02-28T13:18:04;4.73;;;3.90;;
30998;SDS011;20549;50.042;8.968;2023-02-28T13:20:35;5.07;;;4.63;;
30998;SDS011;20549;50.042;8.968;2023-02-28T13:23:00;4.10;;;3.60;;
30998;SDS011;20549;50.042;8.968;2023-02-28T13:28:00;3.90;;;3.50;;
30998;SDS011;20549;50.042;8.968;2023-02-28T13:34:04;4.00;;;3.70;;
30998;SDS011;20549;50.042;8.968;2023-02-28T13:38:48;4.50;;;3.77;;
30998;SDS011;20549;50.042;8.968;2023-02-28T13:52:06;4.17;;;3.67;;
30998;SDS011;20549;50.042;8.968;2023-02-28T14:00:16;4.93;;;3.80;;
30998;SDS011;20549;50.042;8.968;2023-02-28T14:03:01;3.90;;;3.60;;
30998;SDS011;20549;50.042;8.968;2023-02-28T14:05:41;4.77;;;3.60;;
30998;SDS011;20549;50.042;8.968;2023-02-28T14:08:13;4.30;;;3.90;;
30998;SDS011;20549;50.042;8.968;2023-02-28T14:10:39;3.90;;;3.57;;
30998;SDS011;20549;50.042;8.968;2023-02-28T14:13:11;4.50;;;4.10;;
30998;SDS011;20549;50.042;8.968;2023-02-28T14:18:00;3.83;;;3.50;;
30998;SDS011;20549;50.042;8.968;2023-02-28T14:20:27;4.30;;;3.97;;
30998;SDS011;20549;50.042;8.968;2023-02-28T14:28:44;3.90;;;3.60;;
30998;SDS011;20549;50.042;8.968;2023-02-28T14:31:11;4.30;;;3.63;;
30998;SDS011;20549;50.042;8.968;2023-02-28T14:33:45;3.80;;;3.50;;
30998;SDS011;20549;50.042;8.968;2023-02-28T14:36:20;4.47;;;4.07;;
30998;SDS011;20549;50.042;8.968;2023-02-28T14:39:01;4.73;;;4.23;;
30998;SDS011;20549;50.042;8.968;2023-02-28T14:41:30;4.90;;;4.40;;
30998;SDS011;20549;50.042;8.968;2023-02-28T14:43:56;4.57;;;4.17;;
30998;SDS011;20549;50.042;8.968;2023-02-28T14:46:22;4.27;;;3.87;;
30998;SDS011;20549;50.042;8.968;2023-02-28T14:48:49;4.90;;;4.13;;
30998;SDS011;20549;50.042;8.968;2023-02-28T14:51:19;3.67;;;3.37;;
30998;SDS011;20549;50.042;8.968;2023-02-28T14:53:45;4.30;;;3.90;;
30998;SDS011;20549;50.042;8.968;2023-02-28T14:56:20;4.20;;;3.53;;
30998;SDS011;20549;50.042;8.968;2023-02-28T14:58:56;4.07;;;3.67;;
30998;SDS011;20549;50.042;8.968;2023-02-28T15:01:20;3.30;;;3.10;;
30998;SDS011;20549;50.042;8.968;2023-02-28T15:03:46;4.10;;;3.70;;
30998;SDS011;20549;50.042;8.968;2023-02-28T15:06:16;5.23;;;4.10;;
30998;SDS011;20549;50.042;8.968;2023-02-28T15:08:41;4.80;;;4.00;;
30998;SDS011;20549;50.042;8.968;2023-02-28T15:11:08;3.87;;;3.47;;
30998;SDS011;20549;50.042;8.968;2023-02-28T15:13:47;4.33;;;3.93;;
30998;SDS011;20549;50.042;8.968;2023-02-28T15:16:14;4.37;;;3.97;;
30998;SDS011;20549;50.042;8.968;2023-02-28T15:18:49;4.93;;;4.43;;
30998;SDS011;20549;50.042;8.968;2023-02-28T15:21:28;4.87;;;3.80;;
30998;SDS011;20549;50.042;8.968;2023-02-28T15:23:55;4.13;;;3.73;;
30998;SDS011;20549;50.042;8.968;2023-02-28T15:26:24;4.00;;;3.60;;
30998;SDS011;20549;50.042;8.968;2023-02-28T15:28:50;4.47;;;4.07;;
30998;SDS011;20549;50.042;8.968;2023-02-28T15:31:32;4.60;;;4.03;;
30998;SDS011;20549;50.042;8.968;2023-02-28T15:34:04;4.77;;;4.27;;
30998;SDS011;20549;50.042;8.968;2023-02-28T15:36:31;5.27;;;4.50;;
30998;SDS011;20549;50.042;8.968;2023-02-28T15:38:57;6.10;;;4.30;;
30998;SDS011;20549;50.042;8.968;2023-02-28T15:41:24;5.87;;;5.20;;
30998;SDS011;20549;50.042;8.968;2023-02-28T15:46:41;5.87;;;4.53;;
30998;SDS011;20549;50.042;8.968;2023-02-28T15:49:12;4.57;;;4.17;;
30998;SDS011;20549;50.042;8.968;2023-02-28T15:51:34;4.57;;;4.17;;
30998;SDS011;20549;50.042;8.968;2023-02-28T15:54:01;5.70;;;4.77;;
30998;SDS011;20549;50.042;8.968;2023-02-28T15:56:28;5.23;;;4.73;;
30998;SDS011;20549;50.042;8.968;2023-02-28T15:59:00;5.60;;;5.10;;
30998;SDS011;20549;50.042;8.968;2023-02-28T16:01:29;5.20;;;4.70;;
30998;SDS011;20549;50.042;8.968;2023-02-28T16:04:00;5.83;;;4.73;;
30998;SDS011;20549;50.042;8.968;2023-02-28T16:06:40;5.97;;;4.50;;
30998;SDS011;20549;50.042;8.968;2023-02-28T16:09:07;5.43;;;4.30;;
30998;SDS011;20549;50.042;8.968;2023-02-28T16:11:32;4.90;;;4.40;;
30998;SDS011;20549;50.042;8.968;2023-02-28T16:13:59;4.80;;;4.40;;
30998;SDS011;20549;50.042;8.968;2023-02-28T16:16:25;5.00;;;4.00;;
30998;SDS011;20549;50.042;8.968;2023-02-28T16:18:52;4.50;;;3.60;;
30998;SDS011;20549;50.042;8.968;2023-02-28T16:21:19;4.90;;;3.93;;
30998;SDS011;20549;50.042;8.968;2023-02-28T16:23:45;4.37;;;3.90;;
30998;SDS011;20549;50.042;8.968;2023-02-28T16:26:16;4.63;;;4.17;;
30998;SDS011;20549;50.042;8.968;2023-02-28T16:28:38;4.07;;;3.67;;
30998;SDS011;20549;50.042;8.968;2023-02-28T16:31:05;4.87;;;4.47;;
30998;SDS011;20549;50.042;8.968;2023-02-28T16:33:32;4.50;;;4.10;;
30998;SDS011;20549;50.042;8.968;2023-02-28T16:35:58;5.30;;;4.40;;